Terminal Aerodrome Forecast
Issued by NWS

Home | Current Version | Previous Version | Text Only | Print | Product List | Glossary On
Versions: 1 2 3 4 5 6 7 8 9 10 11 12 13 14
000
FTUS45 KRIW 271100
TAFJAC
TAF
KJAC 271125Z 2712/2812 35007KT P6SM VCFG SCT005 BKN040
     FM271600 36006KT P6SM SCT008 BKN035
     FM271800 VRB03KT P6SM SCT025 BKN045
     FM280200 34006KT P6SM SKC
     FM280800 34006KT P6SM VCFG FEW005
      AMD LTD TO CLD VIS AND WIND=

USA.gov is the U.S. government's official web portal to all federal, state and local government web resources and services.